createdAt,value
2019-05-07T00:02:02.852Z,7.30
2019-05-07T00:04:33.491Z,7.40
2019-05-07T00:07:04.043Z,7.40
2019-05-07T00:09:34.535Z,7.30
2019-05-07T00:12:05.440Z,7.30
2019-05-07T00:14:36.177Z,7.30
2019-05-07T00:17:06.730Z,7.40
2019-05-07T00:19:37.213Z,7.30
2019-05-07T00:22:07.702Z,7.40
2019-05-07T00:24:38.167Z,7.40
2019-05-07T00:27:08.675Z,7.40
2019-05-07T00:29:39.126Z,7.40
2019-05-07T00:32:11.962Z,7.40
2019-05-07T00:34:43.502Z,7.50
2019-05-07T00:37:22.054Z,7.40
2019-05-07T00:39:54.256Z,7.30
2019-05-07T00:42:29.056Z,7.40
2019-05-07T00:45:17.040Z,7.40
2019-05-07T00:47:39.328Z,7.40
2019-05-07T00:50:14.441Z,7.40
2019-05-07T00:52:44.934Z,7.40
2019-05-07T00:55:15.393Z,7.40
2019-05-07T00:57:45.877Z,7.40
2019-05-07T01:00:16.580Z,7.40
2019-05-07T01:02:47.075Z,7.40
2019-05-07T01:05:17.534Z,7.40
2019-05-07T01:07:48.044Z,7.40
2019-05-07T01:10:18.672Z,7.40
2019-05-07T01:12:49.160Z,7.40
2019-05-07T01:15:30.379Z,7.50
2019-05-07T01:17:52.129Z,7.50
2019-05-07T01:20:22.605Z,7.40
2019-05-07T01:22:54.418Z,7.40
2019-05-07T01:25:25.445Z,7.40
2019-05-07T01:27:55.908Z,7.50
2019-05-07T01:30:26.396Z,7.50
2019-05-07T01:33:02.792Z,7.50
2019-05-07T01:35:43.709Z,7.50
2019-05-07T01:38:15.818Z,7.40
2019-05-07T01:40:46.305Z,7.40
2019-05-07T01:43:16.859Z,7.30
2019-05-07T01:45:49.781Z,7.30
2019-05-07T01:48:19.586Z,7.30
2019-05-07T01:50:52.372Z,7.30
2019-05-07T01:53:22.858Z,7.20
2019-05-07T01:55:53.412Z,7.10
2019-05-07T01:58:23.866Z,7.20
2019-05-07T02:00:54.420Z,7.10
2019-05-07T02:03:32.773Z,7.10
2019-05-07T02:06:23.260Z,7.10
2019-05-07T02:12:02.539Z,7.00
2019-05-07T02:14:33.267Z,7.10
2019-05-07T02:17:03.761Z,7.10
2019-05-07T02:19:34.240Z,7.00
2019-05-07T02:22:04.694Z,7.00
2019-05-07T02:24:35.254Z,6.90
2019-05-07T02:27:05.835Z,6.90
2019-05-07T02:29:38.202Z,6.90
2019-05-07T02:32:08.545Z,6.90
2019-05-07T02:34:39.030Z,6.90
2019-05-07T02:37:11.230Z,6.90
2019-05-07T02:39:53.187Z,6.90
2019-05-07T02:42:24.161Z,6.80
2019-05-07T02:45:13.461Z,6.80
2019-05-07T02:47:44.137Z,6.80
2019-05-07T02:50:17.457Z,6.80
2019-05-07T02:52:53.605Z,6.80
2019-05-07T02:55:33.823Z,6.80
2019-05-07T02:58:04.429Z,6.80
2019-05-07T03:00:35.255Z,6.80
2019-05-07T03:03:05.960Z,6.90
2019-05-07T03:05:36.451Z,6.80
2019-05-07T03:08:06.971Z,6.80
2019-05-07T03:10:38.832Z,6.90
2019-05-07T03:13:09.275Z,6.90
2019-05-07T03:15:43.201Z,6.80
2019-05-07T03:18:13.918Z,6.80
2019-05-07T03:20:46.840Z,6.90
2019-05-07T03:23:18.940Z,6.80
2019-05-07T03:26:07.204Z,6.80
2019-05-07T03:28:48.210Z,6.80
2019-05-07T03:31:25.538Z,6.80
2019-05-07T03:34:15.551Z,6.70
2019-05-07T03:36:56.545Z,6.80
2019-05-07T03:39:27.100Z,6.70
2019-05-07T03:41:57.631Z,6.80
2019-05-07T03:44:44.459Z,6.80
2019-05-07T03:47:19.599Z,6.80
2019-05-07T03:49:50.058Z,6.90
2019-05-07T03:52:24.138Z,6.80
2019-05-07T03:54:54.090Z,6.80
2019-05-07T03:57:24.892Z,6.80
2019-05-07T03:59:55.373Z,6.70
2019-05-07T04:02:25.844Z,6.70
2019-05-07T04:04:56.341Z,6.80
2019-05-07T04:07:26.825Z,6.80
2019-05-07T04:09:57.311Z,6.80
2019-05-07T04:12:27.808Z,6.80
2019-05-07T04:14:58.267Z,6.80
2019-05-07T04:17:28.719Z,6.90
2019-05-07T04:19:59.202Z,6.90
2019-05-07T04:22:30.032Z,6.90
2019-05-07T04:25:04.412Z,6.90
2019-05-07T04:27:46.294Z,7.00
2019-05-07T04:30:14.513Z,6.90
2019-05-07T04:32:53.109Z,7.00
2019-05-07T04:35:25.407Z,7.00
2019-05-07T04:37:57.043Z,6.90
2019-05-07T04:40:27.575Z,7.00
2019-05-07T04:42:58.144Z,7.00
2019-05-07T04:45:28.619Z,7.00
2019-05-07T04:47:59.085Z,6.90
2019-05-07T04:50:39.428Z,7.00
2019-05-07T04:53:05.153Z,7.00
2019-05-07T04:55:35.620Z,7.10
2019-05-07T04:58:08.922Z,7.20
2019-05-07T05:00:38.788Z,7.10
2019-05-07T05:03:13.830Z,7.20
2019-05-07T05:05:45.882Z,7.30
2019-05-07T05:08:16.337Z,7.20
2019-05-07T05:10:46.778Z,7.30
2019-05-07T05:13:17.289Z,7.30
2019-05-07T05:15:47.830Z,7.40
2019-05-07T05:18:18.389Z,7.40
2019-05-07T05:20:56.228Z,7.50
2019-05-07T05:23:34.123Z,7.70
2019-05-07T05:26:04.595Z,7.70
2019-05-07T05:28:35.102Z,7.80
2019-05-07T05:31:08.855Z,7.80
2019-05-07T05:33:39.300Z,7.80
2019-05-07T05:36:12.627Z,7.80
2019-05-07T05:38:43.371Z,7.80
2019-05-07T05:41:13.902Z,7.90
2019-05-07T05:43:46.039Z,7.90
2019-05-07T05:46:18.534Z,7.90
2019-05-07T05:48:49.293Z,7.90
2019-05-07T05:51:22.813Z,8.00
2019-05-07T05:53:59.274Z,8.20
2019-05-07T05:56:43.559Z,8.20
2019-05-07T05:59:47.313Z,8.20
2019-05-07T06:02:12.267Z,8.20
2019-05-07T06:05:02.200Z,8.30
2019-05-07T06:07:38.251Z,8.40
2019-05-07T06:10:26.188Z,8.60
2019-05-07T06:13:01.782Z,8.50
2019-05-07T06:15:52.232Z,8.50
2019-05-07T06:18:42.546Z,8.60
2019-05-07T06:21:24.372Z,8.60
2019-05-07T06:24:02.296Z,8.70
2019-05-07T06:26:32.916Z,8.60
2019-05-07T06:29:03.407Z,8.60
2019-05-07T06:31:33.876Z,8.70
2019-05-07T06:34:04.885Z,8.70
2019-05-07T06:36:38.188Z,8.80
2019-05-07T06:39:22.097Z,8.80
2019-05-07T06:42:12.717Z,8.80
2019-05-07T06:44:46.012Z,9.00
2019-05-07T06:47:17.661Z,8.90
2019-05-07T06:49:48.166Z,8.90
2019-05-07T06:52:18.638Z,8.90
2019-05-07T06:54:49.132Z,8.90
2019-05-07T06:57:19.618Z,8.90
2019-05-07T06:59:53.143Z,9.00
2019-05-07T07:02:25.355Z,9.10
2019-05-07T07:05:02.694Z,9.10
2019-05-07T07:07:38.491Z,9.20
2019-05-07T07:10:29.630Z,9.20
2019-05-07T07:13:09.165Z,9.30
2019-05-07T07:15:42.697Z,9.50
2019-05-07T07:18:19.504Z,9.50
2019-05-07T07:20:52.313Z,9.50
2019-05-07T07:23:22.734Z,9.60
2019-05-07T07:25:54.941Z,9.60
2019-05-07T07:28:25.397Z,9.70
2019-05-07T07:31:13.075Z,9.70
2019-05-07T07:33:45.503Z,9.80
2019-05-07T07:36:15.995Z,9.90
2019-05-07T07:38:49.012Z,9.90
2019-05-07T07:41:22.318Z,10.10
2019-05-07T07:43:53.094Z,10.20
2019-05-07T07:46:24.481Z,10.20
2019-05-07T07:49:06.762Z,10.20
2019-05-07T07:51:37.892Z,10.30
2019-05-07T07:53:59.391Z,10.30
2019-05-07T07:56:53.208Z,10.40
2019-05-07T07:59:39.540Z,10.40
2019-05-07T08:02:22.807Z,10.40
2019-05-07T08:04:52.928Z,10.50
2019-05-07T08:07:23.501Z,10.60
2019-05-07T08:09:55.754Z,10.80
2019-05-07T08:12:26.359Z,10.90
2019-05-07T08:15:13.259Z,11.00
2019-05-07T08:17:32.696Z,11.10
2019-05-07T08:20:04.965Z,10.90
2019-05-07T08:22:35.590Z,10.80
2019-05-07T08:25:07.664Z,10.80
2019-05-07T08:27:42.970Z,11.00
2019-05-07T08:30:16.716Z,11.10
2019-05-07T08:33:03.750Z,11.20
2019-05-07T08:35:35.887Z,11.30
2019-05-07T08:38:06.373Z,11.50
2019-05-07T08:40:36.872Z,11.70
2019-05-07T08:43:08.283Z,11.70
2019-05-07T08:45:52.442Z,12.00
2019-05-07T08:48:26.085Z,12.30
2019-05-07T08:50:57.768Z,12.50
2019-05-07T08:53:32.837Z,12.50
2019-05-07T08:56:03.510Z,12.30
2019-05-07T08:58:33.949Z,12.10
2019-05-07T09:01:04.507Z,12.00
2019-05-07T09:03:43.939Z,11.90
2019-05-07T09:06:17.211Z,11.80
2019-05-07T09:08:47.691Z,12.00
2019-05-07T09:11:18.174Z,12.00
2019-05-07T09:13:48.639Z,12.20
2019-05-07T09:16:20.363Z,12.30
2019-05-07T09:18:52.798Z,12.50
2019-05-07T09:21:23.407Z,12.70
2019-05-07T09:23:53.893Z,12.80
2019-05-07T09:26:26.470Z,13.10
2019-05-07T09:28:58.624Z,13.10
2019-05-07T09:31:45.663Z,12.80
2019-05-07T09:34:16.594Z,12.70
2019-05-07T09:36:58.513Z,12.80
2019-05-07T09:39:28.980Z,13.00
2019-05-07T09:42:02.047Z,13.00
2019-05-07T09:44:33.693Z,13.30
2019-05-07T09:47:04.387Z,13.70
2019-05-07T09:49:34.878Z,13.90
2019-05-07T09:52:06.080Z,14.00
2019-05-07T09:54:42.686Z,14.00
2019-05-07T09:57:27.198Z,14.20
2019-05-07T09:59:48.413Z,14.50
2019-05-07T10:02:22.516Z,14.80
2019-05-07T10:04:52.932Z,15.10
2019-05-07T10:07:23.492Z,14.90
2019-05-07T10:09:54.544Z,14.10
2019-05-07T10:12:29.410Z,13.70
2019-05-07T10:15:00.033Z,13.30
2019-05-07T10:17:38.066Z,13.10
2019-05-07T10:20:19.237Z,13.10
2019-05-07T10:22:43.741Z,12.80
2019-05-07T10:25:16.408Z,13.30
2019-05-07T10:27:48.424Z,13.40
2019-05-07T10:30:19.240Z,13.40
2019-05-07T10:32:50.089Z,13.70
2019-05-07T10:35:22.783Z,14.00
2019-05-07T10:37:53.052Z,14.00
2019-05-07T10:40:27.017Z,14.40
2019-05-07T10:42:57.509Z,15.00
2019-05-07T10:45:38.700Z,15.60
2019-05-07T10:48:18.540Z,16.10
2019-05-07T10:50:51.728Z,16.70
2019-05-07T10:53:22.968Z,17.60
2019-05-07T10:55:53.605Z,18.00
2019-05-07T10:58:24.063Z,18.60
2019-05-07T11:00:55.816Z,19.10
2019-05-07T11:03:26.284Z,18.90
2019-05-07T11:05:56.868Z,18.30
2019-05-07T11:08:27.414Z,17.60
2019-05-07T11:10:58.033Z,17.10
2019-05-07T11:13:30.007Z,16.70
2019-05-07T11:16:04.948Z,16.20
2019-05-07T11:18:51.782Z,15.80
2019-05-07T11:21:33.260Z,15.60
2019-05-07T11:24:04.346Z,15.50
2019-05-07T11:26:36.154Z,15.30
2019-05-07T11:29:06.759Z,15.20
2019-05-07T11:31:37.932Z,15.20
2019-05-07T11:34:08.774Z,15.20
2019-05-07T11:36:39.235Z,15.50
2019-05-07T11:39:12.232Z,16.30
2019-05-07T11:42:02.624Z,17.00
2019-05-07T11:44:33.900Z,17.70
2019-05-07T11:47:13.614Z,17.80
2019-05-07T11:50:03.308Z,17.50
2019-05-07T11:52:36.015Z,17.50
2019-05-07T11:55:07.750Z,17.60
2019-05-07T11:57:38.207Z,18.50
2019-05-07T12:00:12.892Z,18.80
2019-05-07T12:02:43.276Z,18.60
2019-05-07T12:05:14.535Z,18.00
2019-05-07T12:07:46.549Z,17.70
2019-05-07T12:10:17.216Z,17.00
2019-05-07T12:12:52.009Z,16.60
2019-05-07T12:15:23.649Z,16.20
2019-05-07T12:17:54.119Z,16.00
2019-05-07T12:20:24.701Z,15.90
2019-05-07T12:22:56.969Z,15.90
2019-05-07T12:25:27.530Z,16.10
2019-05-07T12:27:57.994Z,16.60
2019-05-07T12:30:28.606Z,17.60
2019-05-07T12:33:02.845Z,18.00
2019-05-07T12:35:33.516Z,18.70
2019-05-07T12:38:04.845Z,19.70
2019-05-07T12:40:35.334Z,20.30
2019-05-07T12:43:05.938Z,21.50
2019-05-07T12:45:37.593Z,22.60
2019-05-07T12:48:11.328Z,23.30
2019-05-07T12:50:43.190Z,22.30
2019-05-07T12:53:24.173Z,22.00
2019-05-07T12:55:56.416Z,21.80
2019-05-07T12:58:28.157Z,22.40
2019-05-07T13:01:02.771Z,22.40
2019-05-07T13:03:42.676Z,21.40
2019-05-07T13:06:13.187Z,20.80
2019-05-07T13:08:44.318Z,20.00
2019-05-07T13:11:14.821Z,19.30
2019-05-07T13:13:45.351Z,18.80
2019-05-07T13:16:15.912Z,18.80
2019-05-07T13:18:47.078Z,19.30
2019-05-07T13:21:17.531Z,19.50
2019-05-07T13:23:48.024Z,19.80
2019-05-07T13:26:19.801Z,20.50
2019-05-07T13:28:53.109Z,20.80
2019-05-07T13:31:27.370Z,21.20
2019-05-07T13:33:57.737Z,21.20
2019-05-07T13:36:28.779Z,20.80
2019-05-07T13:39:07.642Z,20.20
2019-05-07T13:41:40.702Z,19.30
2019-05-07T13:44:22.859Z,18.60
2019-05-07T13:46:55.399Z,18.10
2019-05-07T13:49:25.956Z,17.40
2019-05-07T13:52:03.545Z,16.90
2019-05-07T13:54:32.383Z,16.50
2019-05-07T13:57:02.455Z,16.20
2019-05-07T13:59:33.005Z,16.10
2019-05-07T14:02:05.199Z,16.00
2019-05-07T14:04:35.830Z,15.70
2019-05-07T14:07:06.404Z,15.40
2019-05-07T14:09:37.028Z,15.30
2019-05-07T14:12:07.587Z,15.20
2019-05-07T14:14:38.150Z,15.10
2019-05-07T14:17:08.784Z,15.10
2019-05-07T14:19:39.239Z,15.00
2019-05-07T14:22:18.009Z,15.00
2019-05-07T14:24:42.276Z,14.80
2019-05-07T14:27:12.793Z,14.70
2019-05-07T14:29:43.285Z,14.60
2019-05-07T14:32:15.394Z,14.40
2019-05-07T14:35:05.436Z,14.20
2019-05-07T14:37:43.297Z,14.00
2019-05-07T14:40:15.299Z,13.90
2019-05-07T14:42:47.519Z,13.70
2019-05-07T14:45:19.384Z,13.70
2019-05-07T14:47:52.246Z,13.60
2019-05-07T14:50:22.808Z,13.60
2019-05-07T14:52:55.270Z,13.50
2019-05-07T14:55:25.630Z,13.40
2019-05-07T14:57:56.291Z,13.20
2019-05-07T15:00:26.881Z,13.10
2019-05-07T15:02:58.103Z,13.20
2019-05-07T15:05:28.629Z,13.20
2019-05-07T15:08:08.331Z,13.10
2019-05-07T15:10:32.633Z,12.80
2019-05-07T15:13:03.359Z,12.90
2019-05-07T15:15:33.903Z,13.00
2019-05-07T15:18:12.238Z,12.90
2019-05-07T15:20:43.939Z,13.10
2019-05-07T15:23:19.103Z,14.10
2019-05-07T15:25:52.729Z,15.70
2019-05-07T15:28:23.479Z,17.20
2019-05-07T15:30:58.399Z,18.20
2019-05-07T15:33:28.962Z,18.60
2019-05-07T15:36:02.653Z,19.70
2019-05-07T15:38:33.756Z,20.20
2019-05-07T15:41:04.511Z,20.40
2019-05-07T15:43:35.151Z,20.40
2019-05-07T15:46:05.871Z,19.60
2019-05-07T15:48:36.966Z,18.70
2019-05-07T15:51:11.736Z,17.60
2019-05-07T15:53:43.282Z,16.60
2019-05-07T15:56:13.918Z,16.00
2019-05-07T15:58:44.960Z,15.40
2019-05-07T16:01:15.497Z,15.00
2019-05-07T16:03:47.469Z,14.80
2019-05-07T16:06:18.019Z,14.60
2019-05-07T16:08:50.259Z,14.50
2019-05-07T16:11:23.055Z,14.10
2019-05-07T16:14:05.427Z,13.70
2019-05-07T16:16:39.526Z,13.70
2019-05-07T16:19:12.500Z,13.70
2019-05-07T16:21:43.802Z,13.80
2019-05-07T16:24:15.826Z,13.80
2019-05-07T16:26:48.010Z,13.80
2019-05-07T16:29:22.492Z,13.60
2019-05-07T16:31:53.249Z,13.50
2019-05-07T16:34:25.431Z,13.30
2019-05-07T16:36:57.442Z,13.10
2019-05-07T16:39:27.956Z,13.00
2019-05-07T16:41:58.524Z,13.00
2019-05-07T16:44:29.054Z,12.90
2019-05-07T16:46:59.547Z,12.90
2019-05-07T16:49:38.495Z,12.90
2019-05-07T16:52:14.882Z,12.90
2019-05-07T16:54:47.525Z,12.80
2019-05-07T16:57:33.371Z,12.80
2019-05-07T17:00:06.476Z,12.80
2019-05-07T17:02:42.228Z,12.80
2019-05-07T17:05:15.623Z,12.80
2019-05-07T17:07:56.319Z,12.80
2019-05-07T17:10:26.777Z,12.80
2019-05-07T17:12:58.493Z,12.80
2019-05-07T17:15:28.956Z,12.80
2019-05-07T17:18:02.861Z,12.80
2019-05-07T17:20:35.745Z,12.70
2019-05-07T17:23:11.957Z,12.80
2019-05-07T17:25:42.813Z,12.80
2019-05-07T17:28:13.361Z,12.80
2019-05-07T17:30:44.650Z,12.70
2019-05-07T17:33:15.150Z,12.70
2019-05-07T17:35:46.282Z,12.70
2019-05-07T17:38:16.979Z,12.60
2019-05-07T17:40:47.528Z,12.60
2019-05-07T17:43:18.025Z,12.40
2019-05-07T17:45:48.504Z,12.30
2019-05-07T17:48:18.994Z,12.20
2019-05-07T17:51:04.455Z,12.20
2019-05-07T17:53:35.031Z,12.10
2019-05-07T17:56:05.675Z,12.00
2019-05-07T17:58:36.132Z,11.90
2019-05-07T18:01:07.408Z,11.80
2019-05-07T18:03:42.762Z,11.80
2019-05-07T18:06:14.349Z,11.60
2019-05-07T18:08:44.838Z,11.60
2019-05-07T18:11:20.948Z,11.50
2019-05-07T18:13:47.498Z,11.40
2019-05-07T18:16:22.234Z,11.20
2019-05-07T18:18:52.928Z,11.10
2019-05-07T18:21:23.496Z,11.00
2019-05-07T18:23:53.962Z,10.90
2019-05-07T18:26:30.426Z,10.80
2019-05-07T18:28:58.203Z,10.70
2019-05-07T18:31:36.340Z,10.60
2019-05-07T18:34:06.990Z,10.60
2019-05-07T18:36:38.857Z,10.50
2019-05-07T18:39:09.593Z,10.40
2019-05-07T18:41:41.714Z,10.30
2019-05-07T18:44:15.412Z,10.30
2019-05-07T18:46:44.591Z,10.20
2019-05-07T18:49:15.112Z,10.20
2019-05-07T18:51:45.586Z,10.10
2019-05-07T18:54:27.774Z,10.00
2019-05-07T18:56:48.365Z,10.00
2019-05-07T18:59:22.141Z,9.90
2019-05-07T19:01:52.843Z,9.80
2019-05-07T19:04:23.377Z,9.70
2019-05-07T19:06:53.851Z,9.60
2019-05-07T19:09:24.358Z,9.60
2019-05-07T19:11:54.813Z,9.50
2019-05-07T19:14:25.326Z,9.50
2019-05-07T19:16:55.871Z,9.50
2019-05-07T19:19:26.437Z,9.40
2019-05-07T19:21:56.896Z,9.30
2019-05-07T19:24:35.243Z,9.30
2019-05-07T19:27:02.050Z,9.20
2019-05-07T19:29:32.531Z,9.10
2019-05-07T19:32:03.421Z,9.10
2019-05-07T19:34:35.569Z,9.10
2019-05-07T19:37:06.074Z,9.00
2019-05-07T19:39:38.016Z,9.00
2019-05-07T19:42:09.371Z,8.90
2019-05-07T19:44:41.956Z,8.90
2019-05-07T19:47:12.745Z,8.80
2019-05-07T19:49:43.339Z,8.80
2019-05-07T19:52:13.898Z,8.80
2019-05-07T19:54:57.859Z,8.70
2019-05-07T19:57:22.987Z,8.70
2019-05-07T19:59:53.145Z,8.70
2019-05-07T20:02:26.995Z,8.70
2019-05-07T20:04:57.629Z,8.60
2019-05-07T20:07:28.123Z,8.50
2019-05-07T20:09:59.537Z,8.50
2019-05-07T20:12:32.100Z,8.40
2019-05-07T20:15:02.867Z,8.40
2019-05-07T20:17:34.093Z,8.30
2019-05-07T20:20:06.360Z,8.20
2019-05-07T20:22:36.851Z,8.20
2019-05-07T20:25:16.438Z,8.10
2019-05-07T20:27:41.857Z,8.10
2019-05-07T20:30:12.613Z,8.10
2019-05-07T20:32:43.173Z,8.00
2019-05-07T20:35:14.512Z,8.00
2019-05-07T20:37:52.110Z,8.00
2019-05-07T20:40:22.788Z,8.00
2019-05-07T20:42:53.317Z,7.90
2019-05-07T20:45:23.960Z,7.90
2019-05-07T20:47:54.465Z,7.90
2019-05-07T20:50:24.953Z,7.90
2019-05-07T20:52:55.401Z,7.80
2019-05-07T20:55:34.177Z,7.80
2019-05-07T20:58:04.964Z,7.80
2019-05-07T21:00:35.547Z,7.70
2019-05-07T21:03:23.393Z,7.70
2019-05-07T21:05:54.049Z,7.70
2019-05-07T21:08:24.580Z,7.60
2019-05-07T21:10:55.557Z,7.60
2019-05-07T21:13:31.436Z,7.60
2019-05-07T21:15:58.202Z,7.50
2019-05-07T21:18:28.738Z,7.50
2019-05-07T21:20:59.292Z,7.50
2019-05-07T21:23:29.768Z,7.40
2019-05-07T21:26:02.133Z,7.40
2019-05-07T21:28:32.927Z,7.40
2019-05-07T21:31:03.412Z,7.30
2019-05-07T21:33:33.883Z,7.30
2019-05-07T21:36:04.421Z,7.20
2019-05-07T21:38:35.369Z,7.10
2019-05-07T21:41:05.967Z,7.10
2019-05-07T21:43:36.462Z,7.00
2019-05-07T21:46:06.927Z,7.00
2019-05-07T21:48:37.455Z,7.00
2019-05-07T21:51:07.928Z,6.90
2019-05-07T21:53:53.800Z,6.90
2019-05-07T21:56:26.024Z,6.90
2019-05-07T21:59:03.617Z,6.80
2019-05-07T22:01:38.997Z,6.80
2019-05-07T22:04:09.598Z,6.70
2019-05-07T22:06:42.948Z,6.70
2019-05-07T22:09:13.274Z,6.80
2019-05-07T22:11:43.771Z,6.80
2019-05-07T22:14:14.291Z,6.70
2019-05-07T22:16:44.857Z,6.70
2019-05-07T22:19:15.315Z,6.70
2019-05-07T22:21:45.797Z,6.70
2019-05-07T22:24:16.365Z,6.60
2019-05-07T22:26:46.808Z,6.60
2019-05-07T22:29:17.301Z,6.60
2019-05-07T22:31:52.990Z,6.60
2019-05-07T22:34:25.296Z,6.60
2019-05-07T22:36:55.781Z,6.60
2019-05-07T22:39:26.282Z,6.60
2019-05-07T22:41:56.721Z,6.50
2019-05-07T22:44:27.203Z,6.50
2019-05-07T22:47:01.233Z,6.40
2019-05-07T22:49:33.362Z,6.40
2019-05-07T22:52:03.965Z,6.30
2019-05-07T22:54:34.441Z,6.40
2019-05-07T22:57:06.537Z,6.40
2019-05-07T22:59:37.025Z,6.40
2019-05-07T23:02:08.650Z,6.30
2019-05-07T23:04:39.135Z,6.30
2019-05-07T23:07:09.604Z,6.30
2019-05-07T23:09:41.982Z,6.30
2019-05-07T23:12:12.470Z,6.30
2019-05-07T23:14:42.987Z,6.30
2019-05-07T23:17:13.435Z,6.20
2019-05-07T23:19:43.944Z,6.30
2019-05-07T23:22:14.423Z,6.20
2019-05-07T23:24:44.877Z,6.20
2019-05-07T23:27:15.361Z,6.20
2019-05-07T23:29:45.823Z,6.20
2019-05-07T23:32:16.319Z,6.20
2019-05-07T23:34:47.859Z,6.10
2019-05-07T23:37:18.338Z,6.10
2019-05-07T23:39:51.957Z,6.00
2019-05-07T23:42:24.232Z,6.00
2019-05-07T23:44:54.685Z,6.00
2019-05-07T23:47:25.177Z,5.90
2019-05-07T23:49:55.638Z,5.90
2019-05-07T23:52:26.195Z,5.90
2019-05-07T23:54:56.688Z,5.80
2019-05-07T23:57:27.166Z,5.80
2019-05-07T23:59:57.643Z,5.80
